Time;durP1;ratioP1;P1;durP2;ratioP2;P2;SDS_P1;SDS_P2;PMS_P1;PMS_P2;Temp;Humidity;BMP_temperature;BMP_pressure;BME280_temperature;BME280_humidity;BME280_pressure;Samples;Min_cycle;Max_cycle;Signal;HPM_P1;HPM_P2
2023/01/05 00:01:28;;;;;;;0.77;0.70;;;9.50;99.90;;;;;;5025653;28;20209;-69
2023/01/05 00:03:55;;;;;;;0.98;0.88;;;9.40;99.90;;;;;;5026087;28;20573;-70
2023/01/05 00:06:21;;;;;;;1.20;1.10;;;9.40;99.90;;;;;;5025533;28;20233;-69
2023/01/05 00:08:48;;;;;;;1.00;0.80;;;9.40;99.90;;;;;;5025072;28;20573;-69
2023/01/05 00:25:08;;;;;;;0.80;0.68;;;9.50;99.90;;;;;;5025822;28;20272;-68
2023/01/05 00:27:36;;;;;;;0.80;0.70;;;9.40;99.90;;;;;;5025605;28;20198;-69
2023/01/05 00:30:04;;;;;;;0.80;0.70;;;9.40;99.90;;;;;;5024830;28;20325;-69
2023/01/05 00:32:31;;;;;;;0.95;0.85;;;9.50;99.90;;;;;;5024981;28;20395;-69
2023/01/05 00:34:58;;;;;;;1.02;0.80;;;9.50;99.90;;;;;;5024970;28;20198;-69
2023/01/05 00:37:27;;;;;;;0.80;0.80;;;9.50;99.90;;;;;;5024714;28;20240;-68
2023/01/05 00:39:54;;;;;;;0.93;0.82;;;9.60;99.90;;;;;;5023899;28;20304;-68
2023/01/05 00:42:21;;;;;;;1.08;0.77;;;9.60;99.90;;;;;;5024635;28;20214;-69
2023/01/05 00:44:49;;;;;;;0.80;0.70;;;9.60;99.90;;;;;;5024424;28;20205;-69
2023/01/05 00:47:16;;;;;;;1.10;0.70;;;9.60;99.90;;;;;;5024759;28;20233;-69
2023/01/05 00:49:43;;;;;;;0.80;0.70;;;9.60;99.90;;;;;;5024237;28;20244;-69
2023/01/05 00:52:10;;;;;;;1.08;0.80;;;9.60;99.90;;;;;;5025315;28;20209;-69
2023/01/05 00:54:36;;;;;;;0.90;0.70;;;9.60;99.90;;;;;;5025120;28;20205;-71
2023/01/05 00:57:04;;;;;;;0.80;0.70;;;9.60;99.90;;;;;;5024543;28;20226;-69
2023/01/05 00:59:31;;;;;;;1.10;0.70;;;9.60;99.90;;;;;;5024717;28;20206;-69
2023/01/05 01:01:59;;;;;;;1.00;0.90;;;9.60;99.90;;;;;;5024846;28;20217;-69
2023/01/05 01:04:26;;;;;;;0.80;0.70;;;9.60;99.90;;;;;;5038835;28;20209;-69
2023/01/05 01:06:53;;;;;;;0.77;0.68;;;9.60;99.90;;;;;;5045201;28;20233;-69
2023/01/05 01:09:20;;;;;;;0.80;0.70;;;9.60;99.90;;;;;;5043928;28;20684;-70
2023/01/05 01:11:48;;;;;;;0.85;0.80;;;9.60;99.90;;;;;;5044594;28;20583;-69
2023/01/05 01:14:15;;;;;;;0.70;0.60;;;9.60;99.90;;;;;;5044601;28;20209;-69
2023/01/05 01:16:42;;;;;;;0.93;0.73;;;9.60;99.90;;;;;;5044081;28;20229;-69
2023/01/05 01:19:14;;;;;;;0.80;0.70;;;9.50;99.90;;;;;;5044104;28;20217;-70
2023/01/05 01:21:41;;;;;;;0.70;0.70;;;9.50;99.90;;;;;;5044618;28;20201;-69
2023/01/05 01:24:08;;;;;;;0.80;0.70;;;9.60;99.90;;;;;;5044892;28;20208;-69
2023/01/05 01:26:35;;;;;;;0.80;0.70;;;9.60;99.90;;;;;;5043714;28;20232;-69
2023/01/05 01:29:01;;;;;;;0.80;0.70;;;9.60;99.90;;;;;;5044628;28;20827;-69
2023/01/05 01:31:28;;;;;;;0.90;0.70;;;9.60;99.90;;;;;;5045167;28;20225;-69
2023/01/05 01:33:55;;;;;;;0.80;0.70;;;9.60;99.90;;;;;;5044414;28;20213;-70
2023/01/05 01:36:23;;;;;;;0.90;0.80;;;9.60;99.90;;;;;;5044825;28;20232;-69
2023/01/05 01:38:49;;;;;;;0.80;0.70;;;9.50;99.90;;;;;;5044867;28;20201;-69
2023/01/05 01:41:16;;;;;;;0.70;0.60;;;9.60;99.90;;;;;;5046440;28;20205;-69
2023/01/05 01:43:45;;;;;;;0.80;0.70;;;9.60;99.90;;;;;;5047533;28;20391;-69
2023/01/05 01:46:13;;;;;;;1.00;0.80;;;9.50;99.90;;;;;;5042027;28;20237;-69
2023/01/05 01:48:46;;;;;;;0.90;0.80;;;9.50;99.90;;;;;;5028838;28;20202;-69
2023/01/05 01:51:17;;;;;;;0.80;0.70;;;9.50;99.90;;;;;;5029054;28;20251;-69
2023/01/05 01:53:49;;;;;;;0.80;0.70;;;9.50;99.90;;;;;;5029179;28;20205;-69
2023/01/05 01:56:21;;;;;;;0.93;0.70;;;9.50;99.90;;;;;;5029054;28;20225;-69
2023/01/05 01:58:48;;;;;;;0.80;0.70;;;9.50;99.90;;;;;;5028439;28;20312;-69
2023/01/05 02:01:15;;;;;;;0.70;0.70;;;9.50;99.90;;;;;;5029068;28;20241;-69
2023/01/05 02:03:43;;;;;;;0.70;0.60;;;9.50;99.90;;;;;;5029162;28;20293;-69
2023/01/05 02:06:10;;;;;;;0.80;0.70;;;9.50;99.90;;;;;;5029751;28;20713;-69
2023/01/05 02:08:36;;;;;;;0.90;0.70;;;9.50;99.90;;;;;;5029399;28;20204;-69
2023/01/05 02:11:22;;;;;;;0.70;0.60;;;9.50;99.90;;;;;;5033548;28;20899;-69
2023/01/05 02:14:01;;;;;;;0.70;0.60;;;9.50;99.90;;;;;;5033606;28;20914;-69
2023/01/05 02:16:38;;;;;;;0.80;0.70;;;9.50;99.90;;;;;;5033099;28;20268;-69
2023/01/05 02:19:42;;;;;;;0.75;0.65;;;9.50;99.90;;;;;;5033051;28;20687;-69
2023/01/05 02:22:26;;;;;;;0.80;0.70;;;9.50;99.90;;;;;;5042403;28;20208;-69
2023/01/05 02:25:22;;;;;;;0.70;0.60;;;9.50;99.90;;;;;;5053227;28;20205;-69
2023/01/05 02:28:00;;;;;;;0.70;0.60;;;9.50;99.90;;;;;;5052655;28;20286;-69
2023/01/05 02:30:58;;;;;;;0.70;0.60;;;9.50;99.90;;;;;;5052460;28;20216;-69
2023/01/05 02:33:43;;;;;;;0.70;0.60;;;9.50;99.90;;;;;;5052755;28;20292;-69
2023/01/05 02:36:18;;;;;;;0.70;0.60;;;9.50;99.90;;;;;;5053098;28;20221;-69
2023/01/05 02:38:52;;;;;;;0.70;0.60;;;9.50;99.90;;;;;;5049067;28;20208;-69
2023/01/05 02:41:23;;;;;;;0.80;0.73;;;9.50;99.90;;;;;;5052171;28;20212;-69
2023/01/05 02:43:50;;;;;;;0.70;0.70;;;9.50;99.90;;;;;;5052845;28;20216;-69
2023/01/05 02:46:17;;;;;;;0.70;0.60;;;9.50;99.90;;;;;;5052588;28;20711;-69
2023/01/05 02:48:47;;;;;;;1.98;0.75;;;9.50;99.90;;;;;;5052210;28;20205;-69
2023/01/05 02:51:19;;;;;;;0.70;0.70;;;9.50;99.90;;;;;;5052891;28;20593;-69
2023/01/05 02:53:49;;;;;;;0.80;0.70;;;9.50;99.90;;;;;;5052295;28;20209;-69
2023/01/05 02:56:19;;;;;;;0.70;0.60;;;9.50;99.90;;;;;;5053137;28;20707;-70
2023/01/05 02:58:51;;;;;;;0.80;0.70;;;9.50;99.90;;;;;;5051891;28;20623;-70
2023/01/05 03:01:23;;;;;;;0.70;0.60;;;9.50;99.90;;;;;;5052697;28;20206;-70
2023/01/05 03:03:56;;;;;;;0.70;0.60;;;9.60;99.90;;;;;;5052612;28;20255;-71
2023/01/05 03:06:28;;;;;;;1.00;0.75;;;9.60;99.90;;;;;;5052502;28;20225;-71
2023/01/05 03:08:58;;;;;;;0.80;0.70;;;9.60;99.90;;;;;;5052018;28;20830;-71
2023/01/05 03:14:21;;;;;;;1.17;0.70;;;9.60;99.90;;;;;;5052518;28;20199;-71
2023/01/05 03:16:49;;;;;;;0.80;0.70;;;9.60;99.90;;;;;;5051791;28;20232;-71
2023/01/05 03:19:42;;;;;;;0.75;0.65;;;9.60;99.90;;;;;;5051549;28;20228;-71
2023/01/05 03:36:25;;;;;;;1.08;0.77;;;9.70;99.90;;;;;;5051754;28;20247;-70
2023/01/05 03:38:54;;;;;;;0.70;0.60;;;9.70;99.90;;;;;;5051428;28;20633;-70
2023/01/05 03:41:23;;;;;;;0.70;0.60;;;9.70;99.90;;;;;;5051855;28;20197;-70
2023/01/05 03:43:50;;;;;;;0.70;0.60;;;9.80;99.90;;;;;;5051504;28;20262;-70
2023/01/05 03:46:19;;;;;;;0.70;0.70;;;9.80;99.90;;;;;;5051832;28;20221;-70
2023/01/05 03:48:47;;;;;;;0.90;0.70;;;9.80;99.90;;;;;;5050791;28;20232;-70
2023/01/05 03:51:15;;;;;;;0.70;0.60;;;9.90;99.90;;;;;;5051712;28;20228;-70
2023/01/05 03:53:43;;;;;;;1.00;0.90;;;9.90;99.90;;;;;;5051264;28;20236;-70
2023/01/05 03:56:10;;;;;;;1.42;0.80;;;10.00;99.90;;;;;;5051394;28;20243;-70
2023/01/05 03:58:37;;;;;;;0.80;0.70;;;10.00;99.90;;;;;;5050888;28;20208;-70
2023/01/05 04:01:04;;;;;;;1.10;0.80;;;10.10;99.90;;;;;;5051393;28;20201;-70
2023/01/05 04:03:31;;;;;;;0.80;0.70;;;10.10;99.90;;;;;;5051375;28;20201;-70
2023/01/05 04:05:58;;;;;;;0.70;0.60;;;10.10;99.90;;;;;;5051220;28;20706;-70
2023/01/05 04:08:24;;;;;;;0.80;0.60;;;10.20;99.90;;;;;;5050469;28;20675;-70
2023/01/05 04:10:53;;;;;;;0.90;0.60;;;10.20;99.90;;;;;;5051176;28;20598;-70
2023/01/05 04:13:20;;;;;;;0.75;0.70;;;10.20;99.90;;;;;;5050983;28;20209;-70
2023/01/05 04:15:47;;;;;;;1.83;0.75;;;10.20;99.90;;;;;;5051050;28;20217;-70
2023/01/05 04:18:14;;;;;;;0.70;0.60;;;10.20;99.90;;;;;;5050968;28;20586;-70
2023/01/05 04:20:40;;;;;;;0.70;0.60;;;10.30;99.90;;;;;;5050504;28;20200;-70
2023/01/05 04:23:07;;;;;;;0.90;0.70;;;10.30;99.90;;;;;;5051071;28;20197;-70
2023/01/05 04:25:34;;;;;;;0.70;0.60;;;10.20;99.90;;;;;;5050589;28;20217;-70
2023/01/05 04:28:02;;;;;;;0.70;0.70;;;10.30;99.90;;;;;;5051113;28;20205;-70
2023/01/05 04:30:28;;;;;;;0.70;0.60;;;10.30;99.90;;;;;;5050043;28;20224;-70
2023/01/05 04:32:55;;;;;;;0.70;0.60;;;10.30;99.90;;;;;;5050319;28;20201;-70
2023/01/05 04:35:22;;;;;;;0.70;0.60;;;10.30;99.90;;;;;;5050870;28;20259;-70
2023/01/05 04:37:48;;;;;;;0.70;0.60;;;10.30;99.90;;;;;;5050311;28;20208;-70
2023/01/05 04:40:15;;;;;;;0.70;0.60;;;10.30;99.90;;;;;;5050389;28;20672;-70
2023/01/05 04:42:42;;;;;;;0.73;0.60;;;10.30;99.90;;;;;;5050433;28;20208;-71
2023/01/05 04:45:11;;;;;;;0.90;0.70;;;10.30;99.90;;;;;;5050272;28;20208;-70
2023/01/05 04:47:37;;;;;;;0.73;0.60;;;10.40;99.90;;;;;;5050571;28;20557;-70
2023/01/05 04:50:05;;;;;;;0.80;0.70;;;10.30;99.90;;;;;;5049776;28;20204;-70
2023/01/05 04:52:32;;;;;;;0.77;0.65;;;10.30;99.90;;;;;;5050372;28;20201;-70
2023/01/05 04:54:58;;;;;;;0.80;0.70;;;10.30;99.90;;;;;;5050617;28;20201;-70
2023/01/05 04:57:25;;;;;;;0.80;0.68;;;10.40;99.90;;;;;;5050107;28;20591;-70
2023/01/05 04:59:52;;;;;;;0.80;0.70;;;10.40;99.90;;;;;;5052875;28;20212;-71
2023/01/05 05:02:20;;;;;;;0.90;0.65;;;10.40;99.90;;;;;;5050657;28;20208;-71
2023/01/05 05:04:47;;;;;;;0.90;0.80;;;10.40;99.90;;;;;;5050504;28;20966;-70
2023/01/05 05:07:14;;;;;;;0.80;0.70;;;10.40;99.90;;;;;;5050350;28;20248;-70
2023/01/05 05:09:40;;;;;;;0.70;0.60;;;10.40;99.90;;;;;;5048856;28;20208;-70
2023/01/05 05:12:07;;;;;;;0.70;0.60;;;10.40;99.90;;;;;;5050336;28;20225;-70
2023/01/05 05:14:34;;;;;;;1.98;0.70;;;10.30;99.90;;;;;;5049576;28;20221;-70
2023/01/05 05:17:01;;;;;;;0.90;0.70;;;10.30;99.90;;;;;;5050353;28;20228;-70
2023/01/05 05:19:29;;;;;;;0.70;0.60;;;10.30;99.90;;;;;;5049701;28;20201;-70
2023/01/05 05:21:55;;;;;;;0.75;0.60;;;10.30;99.90;;;;;;5049990;28;20228;-70
2023/01/05 05:24:22;;;;;;;0.80;0.60;;;10.30;99.90;;;;;;5050284;28;20664;-70
2023/01/05 05:26:49;;;;;;;0.70;0.60;;;10.30;99.90;;;;;;5049526;28;20225;-69
2023/01/05 05:29:16;;;;;;;0.80;0.70;;;10.30;99.90;;;;;;5049746;28;20591;-70
2023/01/05 05:31:42;;;;;;;0.75;0.65;;;10.30;99.90;;;;;;5049839;28;20736;-70
2023/01/05 05:34:09;;;;;;;0.80;0.70;;;10.30;99.90;;;;;;5049504;28;20643;-70
2023/01/05 05:36:37;;;;;;;0.82;0.70;;;10.30;99.90;;;;;;5049690;28;20251;-70
2023/01/05 05:39:04;;;;;;;0.70;0.60;;;10.20;99.90;;;;;;5049256;28;20205;-70
2023/01/05 05:41:31;;;;;;;0.70;0.60;;;10.30;99.90;;;;;;5050062;28;20204;-70
2023/01/05 05:43:59;;;;;;;0.70;0.60;;;10.30;99.90;;;;;;5051812;28;20208;-70
2023/01/05 05:46:27;;;;;;;0.70;0.60;;;10.20;99.90;;;;;;5053607;28;20796;-70
2023/01/05 05:48:53;;;;;;;0.77;0.60;;;10.20;99.90;;;;;;5053414;28;20286;-70
2023/01/05 05:51:20;;;;;;;0.70;0.60;;;10.20;99.90;;;;;;5053524;28;20718;-70
2023/01/05 05:53:48;;;;;;;0.70;0.60;;;10.20;99.90;;;;;;5053740;28;20713;-70
2023/01/05 05:56:15;;;;;;;0.90;0.70;;;10.20;99.90;;;;;;5053879;28;20822;-70
2023/01/05 05:58:42;;;;;;;0.80;0.70;;;10.20;99.90;;;;;;5052758;28;20197;-70
2023/01/05 06:01:09;;;;;;;0.70;0.60;;;10.10;99.90;;;;;;5053732;28;20197;-70
2023/01/05 06:03:36;;;;;;;0.80;0.70;;;10.10;99.90;;;;;;5052813;28;20698;-70
2023/01/05 06:06:03;;;;;;;0.98;0.80;;;10.10;99.90;;;;;;5053735;28;20633;-70
2023/01/05 06:08:29;;;;;;;0.70;0.60;;;10.10;99.90;;;;;;5052756;28;20201;-70
2023/01/05 06:10:57;;;;;;;0.70;0.60;;;10.10;99.90;;;;;;5052880;28;20227;-70
2023/01/05 06:13:24;;;;;;;0.80;0.75;;;10.10;99.90;;;;;;5053352;28;20209;-70
2023/01/05 06:15:51;;;;;;;0.80;0.70;;;10.00;99.90;;;;;;5052884;28;20583;-70
2023/01/05 06:18:18;;;;;;;0.80;0.60;;;10.00;99.90;;;;;;5052953;28;20201;-70
2023/01/05 06:20:44;;;;;;;0.80;0.77;;;10.00;99.90;;;;;;5053198;28;20193;-70
2023/01/05 06:23:11;;;;;;;0.70;0.60;;;10.00;99.90;;;;;;5052742;28;20209;-72
2023/01/05 06:25:38;;;;;;;0.80;0.77;;;10.00;99.90;;;;;;5052855;28;20715;-71
2023/01/05 06:28:06;;;;;;;0.70;0.60;;;10.00;99.90;;;;;;5053214;28;20668;-69
2023/01/05 06:30:33;;;;;;;0.80;0.70;;;10.00;99.90;;;;;;5052704;28;20201;-70
2023/01/05 06:32:59;;;;;;;0.70;0.70;;;10.00;99.90;;;;;;5053280;28;20205;-70
2023/01/05 06:35:26;;;;;;;1.05;0.80;;;10.10;99.90;;;;;;5052743;28;20220;-72
2023/01/05 06:37:53;;;;;;;5.68;0.85;;;10.00;99.90;;;;;;5053105;28;20201;-70
2023/01/05 06:40:20;;;;;;;1.00;0.70;;;10.00;99.90;;;;;;5052646;28;20201;-70
2023/01/05 06:42:46;;;;;;;0.80;0.70;;;10.00;99.90;;;;;;5052504;28;20656;-71
2023/01/05 06:45:16;;;;;;;1.40;0.80;;;9.90;99.90;;;;;;5053224;28;20201;-70
2023/01/05 06:47:44;;;;;;;0.90;0.70;;;10.00;99.90;;;;;;5052626;28;20587;-71
2023/01/05 06:50:11;;;;;;;1.30;1.17;;;10.00;99.90;;;;;;5052551;28;20209;-72
2023/01/05 06:52:39;;;;;;;2.47;0.93;;;10.00;99.90;;;;;;5052968;28;20723;-70
2023/01/05 06:55:06;;;;;;;1.38;0.80;;;10.00;99.90;;;;;;5037308;28;20673;-71
2023/01/05 06:57:35;;;;;;;2.35;1.20;;;9.90;99.90;;;;;;5032775;28;20209;-71
2023/01/05 07:00:02;;;;;;;1.10;0.90;;;9.90;99.90;;;;;;5032152;28;20202;-71
2023/01/05 07:02:30;;;;;;;0.80;0.70;;;9.90;99.90;;;;;;5032756;28;20198;-71
2023/01/05 07:04:57;;;;;;;0.80;0.70;;;9.80;99.90;;;;;;5032905;28;20201;-71
2023/01/05 07:07:23;;;;;;;0.95;0.85;;;9.80;99.90;;;;;;5032173;28;20728;-70
2023/01/05 07:09:50;;;;;;;0.95;0.80;;;9.80;99.90;;;;;;5032021;28;20201;-71
2023/01/05 07:12:17;;;;;;;2.35;0.80;;;9.70;99.90;;;;;;5032350;28;20730;-70
2023/01/05 07:14:44;;;;;;;0.90;0.80;;;9.70;99.90;;;;;;5032452;28;20454;-71
2023/01/05 07:17:12;;;;;;;0.70;0.60;;;9.70;99.90;;;;;;5032610;28;20233;-70
2023/01/05 07:19:40;;;;;;;1.17;0.77;;;9.70;99.90;;;;;;5031437;28;20213;-70
2023/01/05 07:22:07;;;;;;;0.80;0.70;;;9.70;99.90;;;;;;5032682;28;20206;-70
2023/01/05 07:24:33;;;;;;;1.75;0.85;;;9.60;99.90;;;;;;5032163;28;20205;-71
2023/01/05 07:27:00;;;;;;;0.90;0.75;;;9.60;99.90;;;;;;5032067;28;20228;-70
2023/01/05 07:29:27;;;;;;;0.80;0.70;;;9.70;99.90;;;;;;5031728;28;20254;-70
2023/01/05 07:31:53;;;;;;;0.80;0.70;;;9.70;99.90;;;;;;5031690;28;20261;-70
2023/01/05 07:34:21;;;;;;;1.10;0.90;;;9.60;99.90;;;;;;5032332;28;20209;-70
2023/01/05 07:36:49;;;;;;;6.07;1.23;;;9.60;99.90;;;;;;5031991;28;20222;-71
2023/01/05 07:39:16;;;;;;;1.10;0.80;;;9.60;99.90;;;;;;5031148;28;20213;-70
2023/01/05 07:41:44;;;;;;;0.85;0.80;;;9.60;99.90;;;;;;5031814;28;20198;-70
2023/01/05 07:44:10;;;;;;;0.80;0.80;;;9.60;99.90;;;;;;5031612;28;20217;-71
2023/01/05 07:46:37;;;;;;;1.40;1.00;;;9.70;99.90;;;;;;5031510;28;20236;-70
2023/01/05 07:49:04;;;;;;;1.55;1.20;;;9.70;99.90;;;;;;5031502;28;20208;-70
2023/01/05 07:51:30;;;;;;;1.00;0.90;;;9.70;99.90;;;;;;5031340;28;20598;-70
2023/01/05 07:53:58;;;;;;;0.95;0.85;;;9.70;99.90;;;;;;5031954;28;20293;-71
2023/01/05 07:56:25;;;;;;;1.23;1.10;;;9.70;99.90;;;;;;5031317;28;20253;-71
2023/01/05 07:58:52;;;;;;;1.85;0.80;;;9.70;99.90;;;;;;5031127;28;20205;-72
2023/01/05 08:01:19;;;;;;;3.20;1.15;;;9.80;99.90;;;;;;5031896;28;20209;-73
2023/01/05 08:03:46;;;;;;;1.48;1.10;;;9.70;99.90;;;;;;5047630;28;20765;-72
2023/01/05 08:06:16;;;;;;;1.10;1.00;;;9.80;99.90;;;;;;5032811;28;20280;-71
2023/01/05 08:08:42;;;;;;;1.40;1.10;;;9.80;99.90;;;;;;5030444;28;20256;-71
2023/01/05 08:11:14;;;;;;;1.00;0.90;;;9.80;99.90;;;;;;5031448;28;20201;-71
2023/01/05 08:13:59;;;;;;;1.08;0.85;;;9.80;99.90;;;;;;5031260;28;20300;-70
2023/01/05 08:16:26;;;;;;;2.55;1.35;;;9.80;99.90;;;;;;5031565;28;20230;-71
2023/01/05 08:18:53;;;;;;;1.55;1.20;;;9.80;99.90;;;;;;5031012;28;20210;-71
2023/01/05 08:21:20;;;;;;;2.47;1.23;;;9.80;99.90;;;;;;5031283;28;20206;-70
2023/01/05 08:23:49;;;;;;;0.80;0.70;;;9.80;99.90;;;;;;5031405;28;20702;-70
2023/01/05 08:26:19;;;;;;;1.20;0.95;;;9.90;99.90;;;;;;5031497;28;20225;-71
2023/01/05 08:28:46;;;;;;;2.83;0.95;;;9.90;99.90;;;;;;5030295;28;20213;-73
2023/01/05 08:31:15;;;;;;;2.53;1.40;;;9.90;99.90;;;;;;5031266;28;20206;-69
2023/01/05 08:33:42;;;;;;;1.30;1.20;;;10.00;99.90;;;;;;5030779;28;20205;-69
2023/01/05 08:36:11;;;;;;;2.35;1.40;;;10.00;99.90;;;;;;5031374;28;20221;-69
2023/01/05 08:38:46;;;;;;;1.17;0.90;;;10.00;99.90;;;;;;5030573;28;20217;-69
2023/01/05 08:41:14;;;;;;;2.95;2.72;;;10.10;99.90;;;;;;5031164;28;20582;-70
2023/01/05 08:43:42;;;;;;;1.35;0.95;;;10.10;99.90;;;;;;5020076;28;20209;-70
2023/01/05 08:46:09;;;;;;;4.55;1.48;;;10.10;99.90;;;;;;5029370;28;20244;-69
2023/01/05 08:48:36;;;;;;;2.53;1.25;;;10.10;99.90;;;;;;5019922;28;20199;-69
2023/01/05 08:51:05;;;;;;;3.30;1.60;;;10.10;99.90;;;;;;5024171;28;20579;-71
2023/01/05 08:53:31;;;;;;;2.38;1.20;;;10.20;99.90;;;;;;5030018;28;20309;-70
2023/01/05 08:55:58;;;;;;;3.35;1.88;;;10.20;99.90;;;;;;5029811;28;20582;-70
2023/01/05 08:58:25;;;;;;;2.47;1.13;;;10.20;99.90;;;;;;5030079;28;20578;-70
2023/01/05 09:00:53;;;;;;;1.70;1.30;;;10.20;99.90;;;;;;5029887;28;20457;-70
2023/01/05 09:03:20;;;;;;;1.98;1.17;;;10.20;99.90;;;;;;5031023;28;20220;-70
2023/01/05 09:05:47;;;;;;;2.33;1.23;;;10.20;99.90;;;;;;5030248;28;20675;-70
2023/01/05 09:08:14;;;;;;;1.77;1.35;;;10.30;99.90;;;;;;5030650;28;20228;-70
2023/01/05 09:10:40;;;;;;;3.45;1.33;;;10.40;99.90;;;;;;5030424;28;20205;-70
2023/01/05 09:13:07;;;;;;;1.35;0.82;;;10.40;99.90;;;;;;5030056;28;20229;-70
2023/01/05 09:15:35;;;;;;;4.20;1.83;;;10.40;99.90;;;;;;5030362;28;20228;-70
2023/01/05 09:18:03;;;;;;;1.98;1.40;;;10.50;99.90;;;;;;5030507;28;20205;-70
2023/01/05 09:20:30;;;;;;;3.20;1.20;;;10.40;99.90;;;;;;5029252;28;20292;-70
2023/01/05 09:22:56;;;;;;;6.57;2.42;;;10.40;99.90;;;;;;5030567;28;20197;-71
2023/01/05 09:25:23;;;;;;;1.73;1.23;;;10.40;99.90;;;;;;5030025;28;20206;-70
2023/01/05 09:27:50;;;;;;;3.20;1.40;;;10.40;99.90;;;;;;5030206;28;20573;-69
2023/01/05 09:30:16;;;;;;;3.88;1.42;;;10.40;99.90;;;;;;5029762;28;20372;-70
2023/01/05 09:32:43;;;;;;;1.55;1.40;;;10.40;99.90;;;;;;5023823;28;20222;-70
2023/01/05 09:35:11;;;;;;;3.90;1.60;;;10.40;99.90;;;;;;5030429;28;20201;-69
2023/01/05 09:37:38;;;;;;;3.10;1.40;;;10.40;99.90;;;;;;5030043;28;20696;-68
2023/01/05 09:40:06;;;;;;;5.00;1.33;;;10.50;99.90;;;;;;5029307;28;20228;-70
2023/01/05 09:42:35;;;;;;;3.28;1.35;;;10.50;99.90;;;;;;5029878;28;20580;-69
2023/01/05 09:45:06;;;;;;;7.20;2.33;;;10.50;99.90;;;;;;5030235;28;20300;-70
2023/01/05 09:47:37;;;;;;;5.35;1.88;;;10.50;99.90;;;;;;5029419;28;20292;-70
2023/01/05 09:50:06;;;;;;;1.85;1.30;;;10.60;99.90;;;;;;5029008;28;20205;-72
2023/01/05 09:52:35;;;;;;;6.65;1.48;;;10.60;99.90;;;;;;5029557;28;20224;-70
2023/01/05 09:55:04;;;;;;;9.02;2.08;;;10.60;99.90;;;;;;5030024;28;20204;-70
2023/01/05 09:57:31;;;;;;;4.28;2.10;;;10.70;99.90;;;;;;5029034;28;20209;-70
2023/01/05 10:00:02;;;;;;;6.15;1.60;;;10.70;99.90;;;;;;5028125;28;20587;-70
2023/01/05 10:02:34;;;;;;;6.90;2.28;;;10.80;99.90;;;;;;5011792;28;20202;-69
2023/01/05 10:05:03;;;;;;;4.00;1.58;;;10.90;99.90;;;;;;5009713;28;20574;-69
2023/01/05 10:07:40;;;;;;;6.80;1.60;;;11.00;99.90;;;;;;5026950;28;20501;-70
2023/01/05 10:10:17;;;;;;;4.93;1.60;;;11.30;99.90;;;;;;5038021;28;20204;-70
2023/01/05 10:13:02;;;;;;;5.88;1.80;;;11.70;99.90;;;;;;5028960;28;20221;-70
2023/01/05 10:15:34;;;;;;;2.80;1.30;;;11.70;99.90;;;;;;5008233;28;20614;-70
2023/01/05 10:18:08;;;;;;;5.20;1.40;;;11.70;99.90;;;;;;5009472;28;20203;-70
2023/01/05 10:20:45;;;;;;;4.18;1.55;;;11.70;99.90;;;;;;5025243;28;20208;-71
2023/01/05 10:23:27;;;;;;;2.88;1.30;;;11.60;99.90;;;;;;5028771;28;20213;-71
2023/01/05 10:25:58;;;;;;;4.53;1.80;;;11.50;99.90;;;;;;5028785;28;20218;-73
2023/01/05 10:28:35;;;;;;;2.33;1.40;;;11.30;99.90;;;;;;5028276;28;20210;-70
2023/01/05 10:31:07;;;;;;;1.35;1.25;;;11.40;99.90;;;;;;5032920;28;20292;-70
2023/01/05 10:33:47;;;;;;;3.05;1.60;;;11.30;99.90;;;;;;5032949;28;20221;-70
2023/01/05 10:36:27;;;;;;;4.15;1.90;;;11.30;99.90;;;;;;5032337;28;20716;-70
2023/01/05 10:39:02;;;;;;;2.78;1.73;;;11.20;99.90;;;;;;5031686;28;20205;-70
2023/01/05 10:41:37;;;;;;;2.08;1.50;;;11.30;99.90;;;;;;5032411;28;20201;-70
2023/01/05 10:44:34;;;;;;;9.00;1.42;;;11.30;99.90;;;;;;5029790;28;20261;-70
2023/01/05 10:47:01;;;;;;;1.92;1.50;;;11.40;99.90;;;;;;5031587;28;20226;-72
2023/01/05 10:49:31;;;;;;;3.20;1.60;;;11.70;99.90;;;;;;5030937;28;20522;-69
2023/01/05 10:52:00;;;;;;;3.70;2.40;;;12.00;99.90;;;;;;5032504;28;20205;-71
2023/01/05 10:54:36;;;;;;;2.30;1.10;;;12.10;99.90;;;;;;5032226;28;20215;-72
2023/01/05 10:57:40;;;;;;;4.43;1.88;;;12.20;99.90;;;;;;5031411;28;20256;-70
2023/01/05 11:00:11;;;;;;;4.10;1.67;;;12.10;99.90;;;;;;5031268;28;20202;-70
2023/01/05 11:02:41;;;;;;;5.95;1.60;;;12.10;99.90;;;;;;5030744;28;20296;-71
2023/01/05 11:05:23;;;;;;;5.32;1.65;;;12.00;99.90;;;;;;5031669;28;20217;-70
2023/01/05 11:07:51;;;;;;;3.47;1.45;;;11.90;99.90;;;;;;5031497;28;20691;-71
2023/01/05 11:10:29;;;;;;;3.92;1.65;;;11.80;99.90;;;;;;5031018;28;20589;-71
2023/01/05 11:13:02;;;;;;;2.50;1.50;;;11.60;99.90;;;;;;5031673;28;20311;-70
2023/01/05 11:15:31;;;;;;;1.40;1.20;;;11.60;99.90;;;;;;5031025;28;20222;-70
2023/01/05 11:17:58;;;;;;;4.80;1.60;;;11.50;99.90;;;;;;5030648;28;20691;-71
2023/01/05 11:20:27;;;;;;;4.72;1.25;;;11.50;99.90;;;;;;5031138;28;20201;-71
2023/01/05 11:22:54;;;;;;;5.53;1.50;;;11.50;99.90;;;;;;5031970;28;20208;-69
2023/01/05 11:25:27;;;;;;;2.47;1.52;;;11.50;99.90;;;;;;5030844;28;20202;-69
2023/01/05 11:28:11;;;;;;;4.65;1.70;;;11.50;99.90;;;;;;5030678;28;20201;-70
2023/01/05 11:30:41;;;;;;;4.60;1.90;;;11.40;99.90;;;;;;5030628;28;20210;-71
2023/01/05 11:33:22;;;;;;;2.10;1.80;;;11.40;99.90;;;;;;5028504;28;20268;-69
2023/01/05 11:35:49;;;;;;;3.25;1.75;;;11.40;99.90;;;;;;5015810;28;20229;-70
2023/01/05 11:38:23;;;;;;;4.00;1.33;;;11.40;99.90;;;;;;5030828;28;20201;-70
2023/01/05 11:40:52;;;;;;;4.28;1.70;;;11.40;99.90;;;;;;5030715;28;20206;-70
2023/01/05 11:43:21;;;;;;;2.92;1.38;;;11.40;99.90;;;;;;5030817;28;20209;-70
2023/01/05 11:45:52;;;;;;;3.72;1.67;;;11.40;99.90;;;;;;5030074;28;20648;-69
2023/01/05 11:48:21;;;;;;;3.92;1.50;;;11.30;99.90;;;;;;5031071;28;20208;-69
2023/01/05 11:50:50;;;;;;;4.25;1.63;;;11.40;99.90;;;;;;5026130;28;20203;-70
2023/01/05 11:53:37;;;;;;;5.13;1.73;;;11.40;99.90;;;;;;5021450;28;20252;-70
2023/01/05 11:56:14;;;;;;;3.65;1.65;;;11.40;99.90;;;;;;5028143;28;20224;-68
2023/01/05 11:58:44;;;;;;;4.82;1.83;;;11.40;99.90;;;;;;5025662;28;20205;-69
2023/01/05 12:01:46;;;;;;;2.05;1.30;;;11.40;99.90;;;;;;5031049;28;20205;-68
2023/01/05 12:04:27;;;;;;;9.57;1.77;;;11.40;99.90;;;;;;5030873;28;20257;-69
2023/01/05 12:07:24;;;;;;;1.75;1.63;;;11.40;99.90;;;;;;5030140;28;20851;-69
2023/01/05 12:09:57;;;;;;;3.85;1.52;;;11.40;99.90;;;;;;5017696;28;20209;-68
2023/01/05 12:12:40;;;;;;;3.08;1.35;;;11.50;99.90;;;;;;5029719;28;20206;-69
2023/01/05 12:15:42;;;;;;;1.92;1.20;;;11.40;99.90;;;;;;5030813;28;20637;-70
2023/01/05 12:18:22;;;;;;;2.65;1.33;;;11.50;99.90;;;;;;5031279;28;20197;-69
2023/01/05 12:21:06;;;;;;;4.10;1.80;;;11.60;99.90;;;;;;5030076;28;20209;-70
2023/01/05 12:23:55;;;;;;;2.92;1.58;;;11.70;99.90;;;;;;5030756;28;20214;-70
2023/01/05 12:26:27;;;;;;;2.70;1.60;;;11.70;99.90;;;;;;5029662;28;20221;-69
2023/01/05 12:29:22;;;;;;;4.05;1.75;;;11.60;99.90;;;;;;5028987;28;20209;-69
2023/01/05 12:32:06;;;;;;;3.50;1.50;;;11.50;99.90;;;;;;5030552;28;20198;-68
2023/01/05 12:34:59;;;;;;;3.65;1.77;;;11.50;99.90;;;;;;5029674;28;20226;-69
2023/01/05 12:37:39;;;;;;;2.67;1.38;;;11.50;99.90;;;;;;5030246;28;20740;-69
2023/01/05 12:40:25;;;;;;;7.72;1.90;;;11.40;99.90;;;;;;5029642;28;20204;-69
2023/01/05 12:43:00;;;;;;;3.42;1.83;;;11.40;99.90;;;;;;5029375;28;20213;-69
2023/01/05 12:46:02;;;;;;;4.65;1.67;;;11.40;99.90;;;;;;5029049;28;20245;-68
2023/01/05 12:48:35;;;;;;;5.78;1.30;;;11.40;99.90;;;;;;5029091;28;20567;-70
2023/01/05 12:51:10;;;;;;;5.93;1.67;;;11.40;99.90;;;;;;5030398;28;20229;-70
2023/01/05 12:53:51;;;;;;;3.58;1.30;;;11.40;99.90;;;;;;5028561;28;20244;-68
2023/01/05 12:56:24;;;;;;;3.63;1.20;;;11.50;99.90;;;;;;5029487;28;20226;-69
2023/01/05 12:59:11;;;;;;;3.72;1.38;;;11.60;99.90;;;;;;5028127;28;20205;-69
2023/01/05 13:01:42;;;;;;;5.03;1.75;;;11.60;99.90;;;;;;5028021;28;20197;-69
2023/01/05 13:04:21;;;;;;;2.83;1.60;;;11.60;99.90;;;;;;5030420;28;20280;-70
2023/01/05 13:06:52;;;;;;;4.85;2.13;;;11.60;99.90;;;;;;5026121;28;20275;-69
2023/01/05 13:09:22;;;;;;;4.93;1.75;;;11.60;99.90;;;;;;5019136;28;20210;-69
2023/01/05 13:11:53;;;;;;;3.20;1.33;;;11.60;99.90;;;;;;5029329;28;20566;-69
2023/01/05 13:14:24;;;;;;;3.90;1.63;;;11.50;99.90;;;;;;5027285;28;20770;-69
2023/01/05 13:16:54;;;;;;;2.72;1.20;;;11.50;99.90;;;;;;5028616;28;20225;-69
2023/01/05 13:19:28;;;;;;;7.70;1.48;;;11.50;99.90;;;;;;5025186;28;20816;-69
2023/01/05 13:22:02;;;;;;;3.72;1.88;;;11.60;99.90;;;;;;5029839;28;20229;-70
2023/01/05 13:24:34;;;;;;;9.82;3.25;;;11.50;99.90;;;;;;5029399;28;20204;-68
2023/01/05 13:27:02;;;;;;;1.85;1.10;;;11.50;99.90;;;;;;5028925;28;20271;-69
2023/01/05 13:29:32;;;;;;;5.75;2.20;;;11.50;99.90;;;;;;5007861;28;20218;-69
2023/01/05 13:32:25;;;;;;;3.38;2.10;;;11.50;99.90;;;;;;5028790;28;20197;-69
2023/01/05 13:35:27;;;;;;;6.40;2.25;;;11.40;99.90;;;;;;5023508;28;20230;-69
2023/01/05 13:38:21;;;;;;;7.50;2.00;;;11.40;99.90;;;;;;5028697;28;20204;-69
2023/01/05 13:41:16;;;;;;;3.75;2.15;;;11.30;99.90;;;;;;5027470;28;20209;-70